sensor_id;sensor_type;location;lat;lon;timestamp;pressure;altitude;pressure_sealevel;temperature;humidity
46506;BME280;32220;49.808;9.968;2024-01-10T09:27:50;100063.50;;;-2.65;69.83
46506;BME280;32220;49.808;9.968;2024-01-10T09:30:18;100073.69;;;-1.80;66.42
46506;BME280;32220;49.808;9.968;2024-01-10T09:32:46;100102.72;;;-0.93;63.10
46506;BME280;32220;49.808;9.968;2024-01-10T09:35:15;100116.78;;;-0.29;60.39
46506;BME280;32220;49.808;9.968;2024-01-10T09:37:44;100124.59;;;0.15;58.63
46506;BME280;32220;49.808;9.968;2024-01-10T09:40:14;100102.00;;;0.34;56.61
46506;BME280;32220;49.808;9.968;2024-01-10T09:42:43;100108.03;;;0.56;55.88
46506;BME280;32220;49.808;9.968;2024-01-10T09:45:12;100149.53;;;1.35;53.99
46506;BME280;32220;49.808;9.968;2024-01-10T09:47:45;100158.75;;;1.94;51.48
46506;BME280;32220;49.808;9.968;2024-01-10T09:50:14;100146.47;;;2.05;50.93
46506;BME280;32220;49.808;9.968;2024-01-10T09:52:50;100172.41;;;2.29;50.51
46506;BME280;32220;49.808;9.968;2024-01-10T09:55:21;100141.88;;;2.34;50.43
46506;BME280;32220;49.808;9.968;2024-01-10T09:57:49;100148.78;;;2.41;49.23
46506;BME280;32220;49.808;9.968;2024-01-10T10:00:18;100162.72;;;2.43;47.78
46506;BME280;32220;49.808;9.968;2024-01-10T10:02:46;100127.22;;;2.13;46.83
46506;BME280;32220;49.808;9.968;2024-01-10T10:05:16;100155.09;;;2.17;46.12
46506;BME280;32220;49.808;9.968;2024-01-10T10:07:45;100173.28;;;2.30;46.08
46506;BME280;32220;49.808;9.968;2024-01-10T10:10:33;100182.00;;;2.27;45.90
46506;BME280;32220;49.808;9.968;2024-01-10T10:13:03;100150.81;;;2.09;46.64
46506;BME280;32220;49.808;9.968;2024-01-10T10:15:34;100137.84;;;1.95;46.67
46506;BME280;32220;49.808;9.968;2024-01-10T10:18:03;100154.31;;;2.02;46.49
46506;BME280;32220;49.808;9.968;2024-01-10T10:20:37;100140.41;;;2.00;46.72
46506;BME280;32220;49.808;9.968;2024-01-10T10:23:24;100135.13;;;2.09;47.46
46506;BME280;32220;49.808;9.968;2024-01-10T10:25:52;100150.56;;;2.36;46.43
46506;BME280;32220;49.808;9.968;2024-01-10T10:28:19;100153.03;;;2.50;46.20
46506;BME280;32220;49.808;9.968;2024-01-10T10:31:06;100144.19;;;2.66;45.80
46506;BME280;32220;49.808;9.968;2024-01-10T10:33:38;100148.03;;;3.13;44.49
46506;BME280;32220;49.808;9.968;2024-01-10T10:36:06;100165.69;;;4.23;44.01
46506;BME280;32220;49.808;9.968;2024-01-10T10:38:34;100164.97;;;5.96;43.22
46506;BME280;32220;49.808;9.968;2024-01-10T10:41:05;100186.88;;;7.34;40.42
46506;BME280;32220;49.808;9.968;2024-01-10T10:43:52;100178.22;;;10.60;35.52
46506;BME280;32220;49.808;9.968;2024-01-10T10:46:32;100193.75;;;12.97;31.60
46506;BME280;32220;49.808;9.968;2024-01-10T10:49:20;100230.34;;;15.18;29.04
46506;BME280;32220;49.808;9.968;2024-01-10T10:51:54;100207.31;;;16.31;26.83
46506;BME280;32220;49.808;9.968;2024-01-10T10:54:25;100219.88;;;17.49;25.60
46506;BME280;32220;49.808;9.968;2024-01-10T10:56:54;100202.72;;;18.75;24.41
46506;BME280;32220;49.808;9.968;2024-01-10T10:59:42;100202.56;;;19.35;22.90
46506;BME280;32220;49.808;9.968;2024-01-10T11:02:49;100225.28;;;20.00;22.07
46506;BME280;32220;49.808;9.968;2024-01-10T11:05:38;100214.00;;;19.50;22.02
46506;BME280;32220;49.808;9.968;2024-01-10T11:08:57;100183.28;;;19.42;20.78
46506;BME280;32220;49.808;9.968;2024-01-10T11:12:12;100179.16;;;18.55;21.63
46506;BME280;32220;49.808;9.968;2024-01-10T11:15:11;100159.66;;;17.04;22.10
46506;BME280;32220;49.808;9.968;2024-01-10T11:18:27;100182.28;;;15.18;24.13
46506;BME280;32220;49.808;9.968;2024-01-10T11:21:36;100167.25;;;13.11;26.28
46506;BME280;32220;49.808;9.968;2024-01-10T11:24:08;100139.03;;;12.04;27.02
46506;BME280;32220;49.808;9.968;2024-01-10T11:27:06;100110.72;;;12.21;26.91
46506;BME280;32220;49.808;9.968;2024-01-10T11:29:37;100098.56;;;12.35;27.11
46506;BME280;32220;49.808;9.968;2024-01-10T11:32:05;100118.19;;;12.67;26.22
46506;BME280;32220;49.808;9.968;2024-01-10T11:35:00;100121.16;;;12.78;26.67
46506;BME280;32220;49.808;9.968;2024-01-10T11:37:51;100120.31;;;14.23;25.82
46506;BME280;32220;49.808;9.968;2024-01-10T11:40:46;100137.78;;;15.19;24.28
46506;BME280;32220;49.808;9.968;2024-01-10T11:43:15;100161.59;;;15.22;24.16
46506;BME280;32220;49.808;9.968;2024-01-10T11:45:51;100158.50;;;14.08;24.82
46506;BME280;32220;49.808;9.968;2024-01-10T11:48:25;100160.25;;;12.76;25.54
46506;BME280;32220;49.808;9.968;2024-01-10T11:50:57;100147.34;;;11.59;27.14
46506;BME280;32220;49.808;9.968;2024-01-10T11:53:41;100124.28;;;11.01;27.88
46506;BME280;32220;49.808;9.968;2024-01-10T11:56:13;100138.22;;;11.45;28.01
46506;BME280;32220;49.808;9.968;2024-01-10T11:58:56;100139.69;;;12.79;26.58
46506;BME280;32220;49.808;9.968;2024-01-10T12:01:28;100102.50;;;14.24;25.45
46506;BME280;32220;49.808;9.968;2024-01-10T12:03:57;100141.84;;;15.10;25.22
46506;BME280;32220;49.808;9.968;2024-01-10T12:09:58;100142.75;;;15.39;25.20
46506;BME280;32220;49.808;9.968;2024-01-10T12:12:46;100143.56;;;15.11;24.79
46506;BME280;32220;49.808;9.968;2024-01-10T12:15:34;100114.66;;;14.45;24.95
46506;BME280;32220;49.808;9.968;2024-01-10T12:18:55;100107.53;;;14.14;25.00
46506;BME280;32220;49.808;9.968;2024-01-10T12:34:28;100141.63;;;18.18;22.49
46506;BME280;32220;49.808;9.968;2024-01-10T12:36:56;100131.69;;;18.68;22.49
46506;BME280;32220;49.808;9.968;2024-01-10T12:39:24;100138.38;;;18.97;21.88
46506;BME280;32220;49.808;9.968;2024-01-10T12:41:57;100141.88;;;18.87;21.95
46506;BME280;32220;49.808;9.968;2024-01-10T12:44:27;100114.41;;;18.83;22.13
46506;BME280;32220;49.808;9.968;2024-01-10T12:46:55;100097.94;;;18.53;22.14
46506;BME280;32220;49.808;9.968;2024-01-10T12:49:23;100118.03;;;18.23;21.74
46506;BME280;32220;49.808;9.968;2024-01-10T12:51:52;100127.34;;;17.94;22.16
46506;BME280;32220;49.808;9.968;2024-01-10T12:54:20;100118.53;;;17.30;22.58
46506;BME280;32220;49.808;9.968;2024-01-10T12:56:49;100137.66;;;16.59;23.44
46506;BME280;32220;49.808;9.968;2024-01-10T12:59:17;100130.81;;;15.87;24.02
46506;BME280;32220;49.808;9.968;2024-01-10T13:01:44;100113.28;;;15.40;24.33
46506;BME280;32220;49.808;9.968;2024-01-10T13:04:12;100116.78;;;15.13;25.03
46506;BME280;32220;49.808;9.968;2024-01-10T13:06:40;100106.31;;;14.65;24.68
46506;BME280;32220;49.808;9.968;2024-01-10T13:09:09;100114.31;;;14.20;25.48
46506;BME280;32220;49.808;9.968;2024-01-10T13:11:36;100111.03;;;13.99;25.63
46506;BME280;32220;49.808;9.968;2024-01-10T13:14:04;100119.91;;;13.68;25.84
46506;BME280;32220;49.808;9.968;2024-01-10T13:16:31;100092.03;;;13.09;26.46
46506;BME280;32220;49.808;9.968;2024-01-10T13:18:59;100048.59;;;12.24;27.22
46506;BME280;32220;49.808;9.968;2024-01-10T13:21:27;100089.75;;;11.61;27.83
46506;BME280;32220;49.808;9.968;2024-01-10T13:24:35;100058.78;;;10.44;29.08
46506;BME280;32220;49.808;9.968;2024-01-10T13:27:04;100086.84;;;9.84;29.66
46506;BME280;32220;49.808;9.968;2024-01-10T13:30:00;100025.69;;;8.78;30.97
46506;BME280;32220;49.808;9.968;2024-01-10T13:32:50;100070.78;;;8.49;32.13
46506;BME280;32220;49.808;9.968;2024-01-10T13:35:39;100064.59;;;7.96;32.79
46506;BME280;32220;49.808;9.968;2024-01-10T13:38:08;100060.41;;;7.62;33.27
46506;BME280;32220;49.808;9.968;2024-01-10T13:40:53;100039.72;;;7.20;33.83
46506;BME280;32220;49.808;9.968;2024-01-10T13:43:21;100019.03;;;6.79;34.65
46506;BME280;32220;49.808;9.968;2024-01-10T13:46:03;99998.34;;;6.33;35.02
46506;BME280;32220;49.808;9.968;2024-01-10T13:48:50;100009.47;;;6.11;35.46
46506;BME280;32220;49.808;9.968;2024-01-10T13:51:52;100020.28;;;5.99;36.22
46506;BME280;32220;49.808;9.968;2024-01-10T13:54:19;100040.50;;;5.97;36.21
46506;BME280;32220;49.808;9.968;2024-01-10T13:57:08;100022.72;;;5.70;36.51
46506;BME280;32220;49.808;9.968;2024-01-10T13:59:36;100038.88;;;5.55;37.41
46506;BME280;32220;49.808;9.968;2024-01-10T14:04:57;100001.66;;;4.96;38.02
46506;BME280;32220;49.808;9.968;2024-01-10T14:07:24;99992.50;;;4.75;38.25
46506;BME280;32220;49.808;9.968;2024-01-10T14:10:12;100043.00;;;4.86;38.39
46506;BME280;32220;49.808;9.968;2024-01-10T14:13:10;100007.81;;;4.53;38.52
46506;BME280;32220;49.808;9.968;2024-01-10T14:15:37;100041.75;;;4.61;39.06
46506;BME280;32220;49.808;9.968;2024-01-10T14:18:05;100022.09;;;4.37;39.66
46506;BME280;32220;49.808;9.968;2024-01-10T14:20:33;100036.28;;;4.27;40.00
46506;BME280;32220;49.808;9.968;2024-01-10T14:23:02;99991.66;;;3.82;40.32
46506;BME280;32220;49.808;9.968;2024-01-10T14:25:43;100023.75;;;3.95;40.80
46506;BME280;32220;49.808;9.968;2024-01-10T14:28:12;100021.38;;;3.81;41.14
46506;BME280;32220;49.808;9.968;2024-01-10T14:31:00;100018.84;;;3.75;41.48
46506;BME280;32220;49.808;9.968;2024-01-10T14:33:47;100004.34;;;3.53;41.11
46506;BME280;32220;49.808;9.968;2024-01-10T14:36:19;100029.50;;;3.65;41.37
46506;BME280;32220;49.808;9.968;2024-01-10T14:39:20;100016.75;;;3.42;41.30
46506;BME280;32220;49.808;9.968;2024-01-10T14:42:06;100043.69;;;3.48;41.96
46506;BME280;32220;49.808;9.968;2024-01-10T14:44:37;100004.88;;;3.19;41.69
46506;BME280;32220;49.808;9.968;2024-01-10T14:47:05;100025.72;;;3.25;41.81
46506;BME280;32220;49.808;9.968;2024-01-10T14:49:33;100013.69;;;3.12;41.74
46506;BME280;32220;49.808;9.968;2024-01-10T14:52:00;100026.75;;;3.12;42.20
46506;BME280;32220;49.808;9.968;2024-01-10T14:54:28;100038.13;;;3.10;42.41
46506;BME280;32220;49.808;9.968;2024-01-10T14:56:56;100026.97;;;2.97;42.63
46506;BME280;32220;49.808;9.968;2024-01-10T14:59:40;100047.00;;;2.98;42.99
46506;BME280;32220;49.808;9.968;2024-01-10T15:02:08;100040.28;;;2.79;42.89
46506;BME280;32220;49.808;9.968;2024-01-10T15:04:58;100048.16;;;2.77;43.39
46506;BME280;32220;49.808;9.968;2024-01-10T15:07:46;100020.56;;;2.52;43.43
46506;BME280;32220;49.808;9.968;2024-01-10T15:10:15;100007.66;;;2.37;43.52
46506;BME280;32220;49.808;9.968;2024-01-10T15:12:44;100049.28;;;2.55;43.15
46506;BME280;32220;49.808;9.968;2024-01-10T15:15:13;100033.75;;;2.40;43.50
46506;BME280;32220;49.808;9.968;2024-01-10T15:18:00;100044.22;;;2.41;43.81
46506;BME280;32220;49.808;9.968;2024-01-10T15:20:32;100036.47;;;2.32;43.70
46506;BME280;32220;49.808;9.968;2024-01-10T15:22:59;100038.28;;;2.23;43.17
46506;BME280;32220;49.808;9.968;2024-01-10T15:26:07;100046.22;;;2.15;44.92
46506;BME280;32220;49.808;9.968;2024-01-10T15:29:15;100035.97;;;1.94;43.94
46506;BME280;32220;49.808;9.968;2024-01-10T15:31:58;100029.97;;;1.84;43.65
46506;BME280;32220;49.808;9.968;2024-01-10T15:34:25;100048.25;;;1.81;43.89
46506;BME280;32220;49.808;9.968;2024-01-10T15:37:08;100027.50;;;1.64;43.81
46506;BME280;32220;49.808;9.968;2024-01-10T15:39:40;100053.59;;;1.67;44.15
46506;BME280;32220;49.808;9.968;2024-01-10T15:42:08;100048.47;;;1.52;43.98
46506;BME280;32220;49.808;9.968;2024-01-10T15:44:38;100057.22;;;1.48;44.17
46506;BME280;32220;49.808;9.968;2024-01-10T15:47:07;100027.75;;;1.29;44.33
46506;BME280;32220;49.808;9.968;2024-01-10T15:49:35;100040.81;;;1.25;44.41
46506;BME280;32220;49.808;9.968;2024-01-10T15:52:23;100010.50;;;1.02;44.81
46506;BME280;32220;49.808;9.968;2024-01-10T15:55:11;100045.22;;;1.14;44.48
46506;BME280;32220;49.808;9.968;2024-01-10T15:57:38;100027.97;;;0.94;44.70
46506;BME280;32220;49.808;9.968;2024-01-10T16:03:08;100029.75;;;0.77;45.08
46506;BME280;32220;49.808;9.968;2024-01-10T16:05:36;100035.03;;;0.71;45.33
46506;BME280;32220;49.808;9.968;2024-01-10T16:08:05;100052.38;;;0.75;45.14
46506;BME280;32220;49.808;9.968;2024-01-10T16:10:33;100056.75;;;0.68;45.51
46506;BME280;32220;49.808;9.968;2024-01-10T16:13:14;100054.16;;;0.64;45.78
46506;BME280;32220;49.808;9.968;2024-01-10T16:15:56;100058.53;;;0.53;45.73
46506;BME280;32220;49.808;9.968;2024-01-10T16:18:25;99991.78;;;0.06;45.60
46506;BME280;32220;49.808;9.968;2024-01-10T16:20:52;100062.91;;;0.48;45.56
46506;BME280;32220;49.808;9.968;2024-01-10T16:26:33;100011.75;;;0.03;45.97
46506;BME280;32220;49.808;9.968;2024-01-10T16:29:00;100059.44;;;0.27;45.70
46506;BME280;32220;49.808;9.968;2024-01-10T16:31:28;100046.47;;;0.12;45.98
46506;BME280;32220;49.808;9.968;2024-01-10T16:34:15;100023.94;;;-0.13;46.32
46506;BME280;32220;49.808;9.968;2024-01-10T16:37:23;100066.44;;;0.10;46.40
46506;BME280;32220;49.808;9.968;2024-01-10T16:39:50;100061.22;;;0.04;46.42
46506;BME280;32220;49.808;9.968;2024-01-10T16:42:18;100033.47;;;-0.15;46.89
46506;BME280;32220;49.808;9.968;2024-01-10T16:44:45;100057.78;;;-0.04;46.97
46506;BME280;32220;49.808;9.968;2024-01-10T16:47:14;100059.50;;;-0.20;46.97
46506;BME280;32220;49.808;9.968;2024-01-10T16:49:59;100057.75;;;-0.10;47.30
